Friona, Texas
Current Conditions -  °F | °C
As of 12:15 PM on Tuesday 21 Oct 2014 (Local Time) from KHRX Reporting Station
Clear Clear  
Wind Chill: 72°   Ceiling: Unl
Heat Index: 72°   Visibility: 10mi
Dew Point: 55°   Wind: 9mph
Humidity: 55%   Direction: 160°SSE
Pressure: 30.15"   Gusts: NA
Location:  34.64°N, 102.72°W
Report Text: KHRX 211715Z AUTO 16008KT 10SM CLR 22/13 A3015 RMK AO2 T02220129
Loading
Personal Weather Stations






























Interactive Weather Map
Tropical Storm Tracking
New forecast layout! Learn more

10-Day Weather Forecast

Advertisements
Track Severe Weather on mobile